Aérodrome :
LOGIN :

S'inscrire | Disclaimer

   EN    FR    IT 

 










Légende :    VFR   VFR Marginal   IFR   IFR Intensif   IFR Très Intensif
Visi : 
Plafond : 
>= 8 km
>= 3000ft
5 à 8 km
1000 à 3000 ft
1500m à 5 km
500 à 1000 ft
800 à 1500m
200 à 500 ft
< 800m
< 200 ft
Symboles :   Orages  Brouillard  Fortes neiges  Fortes précipitations  Vent > 20 kt
SIGMETs :   Divers  Orages  Givrage  Turbulence  Onde Orograph.  Cendres Volcan.







- Altitude de l'aérodrome : 699 ft
- Code IATA : PAD


EDLP - Paderborn Lippstadt

DERNIER METAR :
  • 192220Z 24004KT CAVOK 14/11 Q1005

METARs EXPIRÉS :
  • 192150Z 23007KT CAVOK 13/10 Q1005
  • 192120Z 25006KT 230V300 CAVOK 13/10 Q1005
  • 192050Z 23006KT CAVOK 14/10 Q1005
  • 192020Z 24004KT CAVOK 14/10 Q1005
  • 191950Z 30002KT CAVOK 17/09 Q1004

TAF TAF EDLP
Valide du 19 à 18h jusqu'au 20 à 18h UTC


191700Z 1918/2018 27006KT CAVOK
BECMG 1918/1921 VRB03KT
PROB30
TEMPO 1918/1920 TSRA BKN020CB
TEMPO 2000/2009 2500 BR
BECMG 2003/2006 BKN007
PROB30
TEMPO 2003/2007 1200 BR BKN004
BECMG 2009/2012 31005KT BKN020
PROB30
TEMPO 2011/2018 TSRA BKN012CB
Pas de NOTAMs connus pour ce terrain.
2 SIGMETs publiés pour la FIR Langen (EDGG) :
 
Orages noyés dans la masse
EDGG SIGMET 2 VALID 191935/192200 EDZF
EDGG LANGEN FIR EMBD TS OBS WI N4842 E00930 - N4733 E00935 - N4746 E00852 - N4732 E00728 - N4832 E00740 - N4842 E00930 TOP FL330 MOV WSW WKN=
Orages noyés dans la masse
EDGG SIGMET 1 VALID 192200/200100 EDZF
EDGG LANGEN FIR EMBD TS OBS WI N4908 E00939 - N4804 E00932 - N4734 E00741 - N4749 E00727 - N4858 E00759 - N4908 E00939 TOP FL320 MOV WSW WKN=



MET'MAP, la Météo Aéronautique d'un coup d'oeil ! - Copyright ORBIFLY Décembre 2007 - Disclaimer

ORBIFLY MET'MAP TEAM :

Programmation & Développement : Alexandra Zaïnal
Conception & Développement : Baudouin d'Aumeries
Co-Programmation & Développement : Marc-Olivier Méhu
Soutien technique & logistique : Manuel Goepfert

Contact : metmap@orbifly.com




SOURCES & CREDITS :

   NOAA